createdAt,value
2023-01-22T00:00:39.709Z,0.85
2023-01-22T00:03:06.081Z,0.85
2023-01-22T00:05:32.660Z,0.84
2023-01-22T00:07:59.008Z,0.83
2023-01-22T00:10:25.595Z,0.85
2023-01-22T00:12:51.953Z,0.84
2023-01-22T00:15:18.366Z,0.85
2023-01-22T00:17:44.704Z,0.83
2023-01-22T00:20:12.563Z,0.79
2023-01-22T00:22:38.901Z,0.82
2023-01-22T00:25:05.777Z,0.78
2023-01-22T00:27:32.149Z,0.80
2023-01-22T00:29:58.554Z,0.80
2023-01-22T00:32:24.941Z,0.81
2023-01-22T00:34:52.603Z,0.82
2023-01-22T00:37:20.292Z,0.79
2023-01-22T00:39:46.784Z,0.80
2023-01-22T00:42:13.242Z,0.81
2023-01-22T00:44:39.604Z,0.79
2023-01-22T00:47:06.181Z,0.81
2023-01-22T00:49:32.523Z,0.80
2023-01-22T00:51:58.903Z,0.82
2023-01-22T00:54:25.296Z,0.80
2023-01-22T00:56:51.702Z,0.79
2023-01-22T00:59:18.216Z,0.81
2023-01-22T01:01:44.821Z,0.82
2023-01-22T01:04:11.242Z,0.82
2023-01-22T01:06:37.602Z,0.82
2023-01-22T01:09:05.262Z,0.82
2023-01-22T01:11:31.758Z,0.81
2023-01-22T01:13:58.356Z,0.82
2023-01-22T01:16:32.137Z,0.80
2023-01-22T01:19:03.544Z,0.81
2023-01-22T01:21:30.188Z,0.80
2023-01-22T01:23:57.050Z,0.80
2023-01-22T01:26:23.492Z,0.81
2023-01-22T01:28:52.606Z,0.79
2023-01-22T01:31:19.992Z,0.80
2023-01-22T01:33:46.869Z,0.77
2023-01-22T01:36:35.520Z,0.78
2023-01-22T01:39:06.640Z,0.79
2023-01-22T01:41:32.983Z,0.79
2023-01-22T01:44:22.116Z,0.77
2023-01-22T01:46:53.447Z,0.78
2023-01-22T01:49:30.946Z,0.78
2023-01-22T01:52:00.132Z,0.79
2023-01-22T01:54:27.204Z,0.79
2023-01-22T01:56:56.164Z,0.78
2023-01-22T01:59:22.518Z,0.80
2023-01-22T02:01:52.960Z,0.80
2023-01-22T02:04:19.719Z,0.78
2023-01-22T02:06:46.070Z,0.78
2023-01-22T02:09:12.762Z,0.78
2023-01-22T02:11:39.564Z,0.78
2023-01-22T02:14:08.128Z,0.80
2023-01-22T02:16:34.785Z,0.81
2023-01-22T02:19:01.228Z,0.80
2023-01-22T02:21:33.599Z,0.81
2023-01-22T02:24:00.188Z,0.81
2023-01-22T02:26:26.614Z,0.80
2023-01-22T02:28:52.980Z,0.84
2023-01-22T02:31:19.475Z,0.82
2023-01-22T02:33:45.983Z,0.82
2023-01-22T02:36:12.417Z,0.80
2023-01-22T02:38:38.828Z,0.81
2023-01-22T02:41:05.223Z,0.77
2023-01-22T02:43:31.587Z,0.77
2023-01-22T02:45:58.245Z,0.75
2023-01-22T02:48:24.622Z,0.75
2023-01-22T02:50:51.064Z,0.75
2023-01-22T02:53:17.706Z,0.75
2023-01-22T02:55:46.159Z,0.75
2023-01-22T02:58:12.629Z,0.74
2023-01-22T03:00:39.206Z,0.73
2023-01-22T03:03:07.749Z,0.73
2023-01-22T03:05:34.809Z,0.71
2023-01-22T03:08:01.689Z,0.73
2023-01-22T03:10:28.078Z,0.72
2023-01-22T03:13:13.398Z,0.70
2023-01-22T03:15:58.106Z,0.70
2023-01-22T03:18:43.463Z,0.72
2023-01-22T03:21:16.857Z,0.72
2023-01-22T03:23:44.747Z,0.72
2023-01-22T03:26:11.091Z,0.70
2023-01-22T03:28:37.503Z,0.69
2023-01-22T03:31:04.484Z,0.69
2023-01-22T03:33:30.901Z,0.71
2023-01-22T03:36:08.210Z,0.70
2023-01-22T03:38:34.667Z,0.70
2023-01-22T03:41:05.447Z,0.67
2023-01-22T03:43:32.555Z,0.69
2023-01-22T03:46:11.897Z,0.69
2023-01-22T03:48:38.990Z,0.68
2023-01-22T03:51:13.319Z,0.68
2023-01-22T03:53:40.259Z,0.70
2023-01-22T03:56:08.506Z,0.72
2023-01-22T03:58:34.936Z,0.68
2023-01-22T04:01:02.908Z,0.69
2023-01-22T04:03:29.434Z,0.69
2023-01-22T04:05:55.866Z,0.69
2023-01-22T04:08:22.487Z,0.71
2023-01-22T04:10:48.894Z,0.73
2023-01-22T04:13:15.281Z,0.73
2023-01-22T04:15:44.227Z,0.72
2023-01-22T04:18:10.971Z,0.73
2023-01-22T04:20:37.905Z,0.73
2023-01-22T04:23:04.610Z,0.74
2023-01-22T04:25:30.970Z,0.76
2023-01-22T04:27:57.312Z,0.79
2023-01-22T04:30:24.016Z,0.80
2023-01-22T04:32:50.407Z,0.80
2023-01-22T04:35:16.870Z,0.76
2023-01-22T04:37:43.449Z,0.75
2023-01-22T04:40:10.336Z,0.75
2023-01-22T04:42:36.695Z,0.76
2023-01-22T04:45:03.423Z,0.75
2023-01-22T04:47:29.790Z,0.75
2023-01-22T04:49:56.132Z,0.75
2023-01-22T04:52:22.492Z,0.76
2023-01-22T04:54:49.570Z,0.75
2023-01-22T04:57:15.909Z,0.75
2023-01-22T04:59:42.518Z,0.76
2023-01-22T05:02:08.926Z,0.74
2023-01-22T05:04:35.350Z,0.74
2023-01-22T05:07:01.933Z,0.73
2023-01-22T05:09:28.291Z,0.70
2023-01-22T05:11:54.734Z,0.70
2023-01-22T05:14:21.083Z,0.70
2023-01-22T05:16:49.016Z,0.72
2023-01-22T05:19:15.906Z,0.71
2023-01-22T05:21:42.497Z,0.71
2023-01-22T05:24:09.424Z,0.70
2023-01-22T05:26:35.767Z,0.71
2023-01-22T05:29:02.191Z,0.72
2023-01-22T05:31:28.631Z,0.71
2023-01-22T05:33:55.000Z,0.70
2023-01-22T05:36:22.013Z,0.71
2023-01-22T05:38:48.389Z,0.70
2023-01-22T05:41:14.768Z,0.71
2023-01-22T05:43:41.335Z,0.71
2023-01-22T05:46:07.708Z,0.71
2023-01-22T05:48:34.066Z,0.71
2023-01-22T05:51:04.959Z,0.71
2023-01-22T05:53:31.339Z,0.71
2023-01-22T05:56:02.748Z,0.73
2023-01-22T05:58:32.440Z,0.70
2023-01-22T06:00:58.925Z,0.73
2023-01-22T06:03:25.361Z,0.73
2023-01-22T06:06:02.012Z,0.72
2023-01-22T06:08:28.653Z,0.73
2023-01-22T06:11:04.117Z,0.72
2023-01-22T06:13:30.857Z,0.74
2023-01-22T06:15:57.618Z,0.73
2023-01-22T06:18:24.454Z,0.71
2023-01-22T06:20:51.060Z,0.71
2023-01-22T06:23:17.445Z,0.71
2023-01-22T06:25:43.855Z,0.69
2023-01-22T06:28:10.518Z,0.69
2023-01-22T06:30:37.422Z,0.69
2023-01-22T06:33:04.023Z,0.70
2023-01-22T06:35:30.369Z,0.71
2023-01-22T06:37:56.703Z,0.74
2023-01-22T06:40:23.283Z,0.75
2023-01-22T06:42:49.637Z,0.71
2023-01-22T06:45:16.348Z,0.73
2023-01-22T06:47:45.909Z,0.71
2023-01-22T06:50:12.928Z,0.72
2023-01-22T06:52:39.384Z,0.69
2023-01-22T06:55:06.002Z,0.71
2023-01-22T06:57:32.388Z,0.71
2023-01-22T06:59:58.750Z,0.73
2023-01-22T07:02:25.132Z,0.72
2023-01-22T07:04:51.748Z,0.71
2023-01-22T07:07:18.160Z,0.75
2023-01-22T07:09:44.718Z,0.74
2023-01-22T07:12:11.110Z,0.70
2023-01-22T07:14:37.953Z,0.75
2023-01-22T07:17:04.574Z,0.73
2023-01-22T07:19:30.959Z,0.73
2023-01-22T07:21:57.313Z,0.75
2023-01-22T07:24:23.932Z,0.75
2023-01-22T07:26:50.316Z,0.76
2023-01-22T07:29:16.938Z,0.76
2023-01-22T07:31:43.360Z,0.76
2023-01-22T07:34:10.917Z,0.73
2023-01-22T07:36:37.267Z,0.76
2023-01-22T07:39:05.497Z,0.75
2023-01-22T07:41:32.422Z,0.82
2023-01-22T07:44:00.378Z,0.77
2023-01-22T07:46:27.594Z,0.85
2023-01-22T07:48:54.235Z,0.87
2023-01-22T07:51:20.721Z,0.91
2023-01-22T07:53:47.308Z,0.90
2023-01-22T07:56:13.654Z,0.88
2023-01-22T07:58:41.146Z,0.90
2023-01-22T08:01:07.570Z,0.95
2023-01-22T08:03:34.306Z,0.98
2023-01-22T08:06:00.807Z,0.93
2023-01-22T08:08:27.253Z,1.00
2023-01-22T08:10:53.610Z,1.03
2023-01-22T08:13:20.000Z,1.02
2023-01-22T08:15:46.346Z,1.04
2023-01-22T08:18:12.940Z,1.08
2023-01-22T08:20:39.306Z,1.03
2023-01-22T08:23:05.684Z,1.04
2023-01-22T08:25:32.051Z,1.05
2023-01-22T08:28:01.934Z,1.08
2023-01-22T08:30:28.404Z,1.08
2023-01-22T08:32:55.301Z,1.06
2023-01-22T08:35:21.801Z,1.12
2023-01-22T08:37:48.386Z,1.12
2023-01-22T08:40:15.214Z,1.16
2023-01-22T08:42:41.679Z,1.09
2023-01-22T08:45:08.459Z,1.12
2023-01-22T08:47:34.859Z,1.19
2023-01-22T08:50:04.142Z,1.14
2023-01-22T08:52:30.539Z,1.18
2023-01-22T08:54:56.980Z,1.22
2023-01-22T08:57:23.401Z,1.26
2023-01-22T09:00:00.664Z,1.20
2023-01-22T09:02:27.955Z,1.22
2023-01-22T09:04:54.361Z,1.18
2023-01-22T09:07:20.750Z,1.20
2023-01-22T09:09:47.111Z,1.21
2023-01-22T09:12:13.478Z,1.19
2023-01-22T09:14:40.077Z,1.18
2023-01-22T09:17:06.425Z,1.14
2023-01-22T09:19:32.803Z,1.21
2023-01-22T09:21:59.179Z,1.26
2023-01-22T09:24:25.860Z,1.28
2023-01-22T09:26:52.207Z,1.29
2023-01-22T09:29:18.807Z,1.27
2023-01-22T09:31:45.188Z,1.26
2023-01-22T09:34:11.584Z,1.28
2023-01-22T09:36:37.993Z,1.26
2023-01-22T09:39:04.368Z,1.28
2023-01-22T09:41:35.771Z,1.31
2023-01-22T09:44:23.043Z,1.33
2023-01-22T09:47:00.126Z,1.29
2023-01-22T09:49:52.222Z,1.28
2023-01-22T09:52:18.571Z,1.27
2023-01-22T09:54:45.129Z,1.29
2023-01-22T09:57:19.840Z,1.29
2023-01-22T09:59:56.906Z,1.28
2023-01-22T10:02:31.915Z,1.28
2023-01-22T10:05:17.849Z,1.30
2023-01-22T10:07:47.451Z,1.24
2023-01-22T10:10:20.544Z,1.27
2023-01-22T10:13:00.580Z,1.32
2023-01-22T10:15:27.221Z,1.32
2023-01-22T10:17:56.833Z,1.30
2023-01-22T10:20:24.863Z,1.28
2023-01-22T10:22:55.107Z,1.29
2023-01-22T10:25:21.661Z,1.31
2023-01-22T10:27:56.986Z,1.35
2023-01-22T10:30:26.929Z,1.30
2023-01-22T10:33:03.967Z,1.36
2023-01-22T10:35:33.663Z,1.36
2023-01-22T10:38:00.435Z,1.35
2023-01-22T10:40:27.294Z,1.34
2023-01-22T10:43:04.018Z,1.31
2023-01-22T10:45:30.622Z,1.26
2023-01-22T10:48:29.411Z,1.33
2023-01-22T10:51:07.355Z,1.39
2023-01-22T10:53:35.372Z,1.35
2023-01-22T10:56:03.405Z,1.37
2023-01-22T10:58:32.093Z,1.34
2023-01-22T11:01:06.830Z,1.41
2023-01-22T11:03:37.440Z,1.35
2023-01-22T11:06:15.637Z,1.34
2023-01-22T11:09:04.019Z,1.35
2023-01-22T11:11:34.734Z,1.32
2023-01-22T11:14:04.572Z,1.33
2023-01-22T11:16:33.484Z,1.37
2023-01-22T11:19:13.031Z,1.47
2023-01-22T11:21:43.028Z,1.38
2023-01-22T11:24:15.828Z,1.46
2023-01-22T11:26:54.455Z,1.38
2023-01-22T11:29:45.283Z,1.37
2023-01-22T11:32:11.638Z,1.38
2023-01-22T11:34:41.522Z,1.39
2023-01-22T11:37:12.013Z,1.40
2023-01-22T11:40:01.410Z,1.38
2023-01-22T11:42:59.147Z,1.36
2023-01-22T11:45:38.195Z,1.33
2023-01-22T11:48:37.830Z,1.37
2023-01-22T11:51:23.138Z,1.42
2023-01-22T11:54:14.515Z,1.39
2023-01-22T11:56:52.261Z,1.53
2023-01-22T11:59:51.164Z,1.45
2023-01-22T12:02:39.454Z,1.44
2023-01-22T12:05:09.173Z,1.42
2023-01-22T12:08:05.997Z,1.49
2023-01-22T12:10:55.134Z,1.46
2023-01-22T12:13:48.890Z,1.44
2023-01-22T12:16:30.292Z,1.52
2023-01-22T12:19:34.366Z,1.45
2023-01-22T12:22:07.343Z,1.45
2023-01-22T12:24:41.377Z,1.46
2023-01-22T12:27:27.121Z,1.54
2023-01-22T12:30:12.635Z,1.55
2023-01-22T12:32:39.005Z,1.53
2023-01-22T12:35:06.754Z,1.53
2023-01-22T12:37:40.838Z,1.55
2023-01-22T12:40:19.756Z,1.53
2023-01-22T12:42:49.180Z,1.52
2023-01-22T12:45:18.417Z,1.48
2023-01-22T12:47:56.970Z,1.54
2023-01-22T12:50:24.635Z,1.61
2023-01-22T12:53:18.102Z,1.59
2023-01-22T12:55:45.055Z,1.64
2023-01-22T12:58:26.964Z,1.53
2023-01-22T13:01:00.559Z,1.56
2023-01-22T13:03:32.922Z,1.58
2023-01-22T13:05:59.901Z,1.59
2023-01-22T13:08:34.513Z,1.63
2023-01-22T13:11:05.698Z,1.63
2023-01-22T13:13:34.435Z,1.61
2023-01-22T13:16:06.461Z,1.61
2023-01-22T13:18:35.048Z,1.55
2023-01-22T13:21:03.253Z,1.52
2023-01-22T13:23:47.376Z,1.52
2023-01-22T13:26:21.996Z,1.49
2023-01-22T13:29:28.591Z,1.58
2023-01-22T13:31:59.421Z,1.51
2023-01-22T13:34:26.181Z,1.53
2023-01-22T13:36:52.733Z,1.55
2023-01-22T13:39:37.865Z,1.55
2023-01-22T13:42:05.000Z,1.54
2023-01-22T13:44:33.920Z,1.48
2023-01-22T13:47:00.251Z,1.56
2023-01-22T13:49:28.533Z,1.52
2023-01-22T13:51:56.727Z,1.51
2023-01-22T13:54:33.497Z,1.54
2023-01-22T13:57:00.060Z,1.47
2023-01-22T13:59:28.430Z,1.47
2023-01-22T14:01:54.895Z,1.46
2023-01-22T14:04:35.411Z,1.46
2023-01-22T14:07:01.822Z,1.51
2023-01-22T14:09:33.595Z,1.49
2023-01-22T14:12:00.525Z,1.49
2023-01-22T14:14:27.075Z,1.51
2023-01-22T14:16:53.464Z,1.52
2023-01-22T14:19:19.847Z,1.45
2023-01-22T14:21:46.214Z,1.47
2023-01-22T14:24:12.647Z,1.51
2023-01-22T14:26:39.016Z,1.48
2023-01-22T14:29:05.441Z,1.48
2023-01-22T14:31:31.841Z,1.50
2023-01-22T14:33:58.288Z,1.47
2023-01-22T14:36:24.718Z,1.42
2023-01-22T14:38:53.471Z,1.45
2023-01-22T14:41:19.834Z,1.43
2023-01-22T14:43:46.240Z,1.45
2023-01-22T14:46:12.585Z,1.46
2023-01-22T14:48:39.211Z,1.46
2023-01-22T14:51:13.083Z,1.45
2023-01-22T14:53:40.056Z,1.45
2023-01-22T14:56:07.263Z,1.48
2023-01-22T14:58:33.871Z,1.49
2023-01-22T15:01:00.300Z,1.48
2023-01-22T15:03:29.062Z,1.43
2023-01-22T15:05:55.446Z,1.40
2023-01-22T15:08:21.790Z,1.39
2023-01-22T15:10:48.388Z,1.38
2023-01-22T15:13:14.959Z,1.39
2023-01-22T15:15:41.291Z,1.39
2023-01-22T15:18:07.639Z,1.38
2023-01-22T15:20:33.998Z,1.39
2023-01-22T15:23:00.462Z,1.38
2023-01-22T15:25:27.255Z,1.39
2023-01-22T15:27:53.855Z,1.38
2023-01-22T15:30:20.633Z,1.40
2023-01-22T15:32:47.180Z,1.45
2023-01-22T15:35:13.629Z,1.40
2023-01-22T15:37:40.050Z,1.40
2023-01-22T15:40:07.540Z,1.42
2023-01-22T15:42:35.613Z,1.41
2023-01-22T15:45:03.497Z,1.42
2023-01-22T15:47:29.883Z,1.38
2023-01-22T15:49:56.279Z,1.40
2023-01-22T15:52:22.684Z,1.38
2023-01-22T15:54:51.170Z,1.36
2023-01-22T15:57:17.578Z,1.35
2023-01-22T15:59:44.242Z,1.40
2023-01-22T16:02:10.879Z,1.37
2023-01-22T16:04:37.551Z,1.37
2023-01-22T16:07:04.020Z,1.39
2023-01-22T16:09:30.392Z,1.36
2023-01-22T16:11:57.358Z,1.35
2023-01-22T16:14:23.700Z,1.37
2023-01-22T16:16:50.604Z,1.38
2023-01-22T16:19:17.206Z,1.38
2023-01-22T16:21:45.023Z,1.38
2023-01-22T16:24:11.424Z,1.38
2023-01-22T16:26:37.871Z,1.41
2023-01-22T16:29:04.915Z,1.39
2023-01-22T16:31:33.349Z,1.36
2023-01-22T16:34:01.719Z,1.39
2023-01-22T16:36:29.462Z,1.42
2023-01-22T16:38:55.895Z,1.42
2023-01-22T16:41:25.484Z,1.39
2023-01-22T16:44:02.112Z,1.37
2023-01-22T16:46:30.116Z,1.38
2023-01-22T16:49:01.019Z,1.39
2023-01-22T16:51:28.145Z,1.37
2023-01-22T16:53:54.869Z,1.34
2023-01-22T16:56:21.241Z,1.38
2023-01-22T16:58:47.620Z,1.41
2023-01-22T17:01:14.587Z,1.40
2023-01-22T17:03:41.368Z,1.38
2023-01-22T17:06:10.685Z,1.37
2023-01-22T17:08:37.061Z,1.39
2023-01-22T17:11:05.936Z,1.44
2023-01-22T17:13:32.341Z,1.41
2023-01-22T17:15:58.956Z,1.40
2023-01-22T17:18:25.457Z,1.41
2023-01-22T17:21:01.841Z,1.44
2023-01-22T17:23:28.642Z,1.44
2023-01-22T17:25:55.085Z,1.44
2023-01-22T17:28:24.335Z,1.42
2023-01-22T17:30:51.070Z,1.41
2023-01-22T17:33:20.653Z,1.43
2023-01-22T17:35:47.010Z,1.41
2023-01-22T17:38:13.434Z,1.42
2023-01-22T17:40:39.789Z,1.44
2023-01-22T17:43:06.173Z,1.41
2023-01-22T17:45:32.556Z,1.41
2023-01-22T17:47:59.925Z,1.44
2023-01-22T17:50:26.300Z,1.42
2023-01-22T17:52:52.885Z,1.41
2023-01-22T17:55:19.393Z,1.40
2023-01-22T17:57:45.858Z,1.43
2023-01-22T18:00:12.932Z,1.43
2023-01-22T18:02:39.331Z,1.39
2023-01-22T18:05:06.548Z,1.39
2023-01-22T18:07:35.506Z,1.39
2023-01-22T18:10:01.881Z,1.39
2023-01-22T18:12:28.296Z,1.39
2023-01-22T18:14:54.699Z,1.42
2023-01-22T18:17:21.112Z,1.37
2023-01-22T18:19:47.491Z,1.36
2023-01-22T18:22:15.303Z,1.34
2023-01-22T18:24:41.683Z,1.30
2023-01-22T18:27:08.079Z,1.33
2023-01-22T18:29:34.828Z,1.33
2023-01-22T18:32:01.518Z,1.33
2023-01-22T18:34:27.932Z,1.35
2023-01-22T18:36:54.328Z,1.32
2023-01-22T18:39:21.340Z,1.28
2023-01-22T18:41:47.760Z,1.30
2023-01-22T18:44:15.183Z,1.28
2023-01-22T18:46:44.990Z,1.30
2023-01-22T18:49:12.671Z,1.32
2023-01-22T18:51:41.828Z,1.32
2023-01-22T18:54:08.661Z,1.32
2023-01-22T18:56:36.707Z,1.31
2023-01-22T18:59:03.135Z,1.33
2023-01-22T19:01:31.228Z,1.34
2023-01-22T19:04:03.193Z,1.31
2023-01-22T19:06:31.289Z,1.28
2023-01-22T19:09:05.032Z,1.28
2023-01-22T19:11:33.243Z,1.27
2023-01-22T19:14:00.179Z,1.28
2023-01-22T19:16:27.137Z,1.30
2023-01-22T19:18:58.370Z,1.35
2023-01-22T19:21:25.206Z,1.32
2023-01-22T19:23:54.339Z,1.36
2023-01-22T19:26:28.072Z,1.35
2023-01-22T19:28:56.003Z,1.36
2023-01-22T19:31:25.206Z,1.36
2023-01-22T19:33:52.548Z,1.33
2023-01-22T19:36:19.305Z,1.29
2023-01-22T19:38:45.700Z,1.33
2023-01-22T19:41:12.262Z,1.29
2023-01-22T19:43:38.684Z,1.32
2023-01-22T19:46:07.278Z,1.32
2023-01-22T19:48:34.351Z,1.31
2023-01-22T19:51:04.990Z,1.29
2023-01-22T19:53:31.465Z,1.30
2023-01-22T19:55:57.821Z,1.31
2023-01-22T19:58:24.330Z,1.30
2023-01-22T20:00:51.014Z,1.34
2023-01-22T20:03:17.733Z,1.35
2023-01-22T20:05:44.645Z,1.32
2023-01-22T20:08:11.474Z,1.31
2023-01-22T20:10:37.827Z,1.29
2023-01-22T20:13:04.740Z,1.25
2023-01-22T20:15:31.357Z,1.23
2023-01-22T20:17:57.925Z,1.24
2023-01-22T20:20:26.008Z,1.23
2023-01-22T20:22:53.072Z,1.23
2023-01-22T20:25:21.906Z,1.27
2023-01-22T20:27:48.517Z,1.28
2023-01-22T20:30:15.043Z,1.26
2023-01-22T20:32:41.465Z,1.31
2023-01-22T20:35:08.091Z,1.35
2023-01-22T20:37:34.448Z,1.36
2023-01-22T20:40:00.866Z,1.37
2023-01-22T20:42:28.276Z,1.41
2023-01-22T20:44:58.334Z,1.45
2023-01-22T20:47:25.107Z,1.48
2023-01-22T20:49:51.527Z,1.46
2023-01-22T20:52:19.839Z,1.49
2023-01-22T20:55:00.917Z,1.49
2023-01-22T20:57:29.052Z,1.52
2023-01-22T20:59:55.673Z,1.56
2023-01-22T21:02:22.329Z,1.56
2023-01-22T21:04:53.000Z,1.51
2023-01-22T21:07:19.800Z,1.52
2023-01-22T21:09:46.237Z,1.50
2023-01-22T21:12:13.615Z,1.48
2023-01-22T21:14:40.096Z,1.49
2023-01-22T21:17:06.475Z,1.50
2023-01-22T21:19:33.045Z,1.47
2023-01-22T21:22:00.880Z,1.47
2023-01-22T21:24:27.474Z,1.42
2023-01-22T21:26:54.073Z,1.40
2023-01-22T21:29:21.901Z,1.42
2023-01-22T21:31:49.932Z,1.41
2023-01-22T21:34:18.177Z,1.37
2023-01-22T21:36:47.288Z,1.34
2023-01-22T21:39:15.064Z,1.36
2023-01-22T21:41:41.947Z,1.36
2023-01-22T21:44:28.911Z,1.32
2023-01-22T21:46:55.519Z,1.32
2023-01-22T21:49:24.257Z,1.29
2023-01-22T21:51:52.269Z,1.33
2023-01-22T21:54:24.715Z,1.35
2023-01-22T21:56:51.257Z,1.41
2023-01-22T21:59:17.725Z,1.38
2023-01-22T22:01:45.001Z,1.36
2023-01-22T22:04:12.085Z,1.34
2023-01-22T22:06:38.660Z,1.34
2023-01-22T22:09:11.549Z,1.33
2023-01-22T22:11:37.897Z,1.32
2023-01-22T22:14:05.697Z,1.34
2023-01-22T22:16:33.369Z,1.36
2023-01-22T22:18:59.890Z,1.37
2023-01-22T22:21:26.276Z,1.38
2023-01-22T22:23:52.855Z,1.40
2023-01-22T22:26:19.266Z,1.44
2023-01-22T22:28:45.729Z,1.44
2023-01-22T22:31:13.837Z,1.41
2023-01-22T22:33:47.661Z,1.44
2023-01-22T22:36:15.114Z,1.43
2023-01-22T22:38:41.487Z,1.41
2023-01-22T22:41:12.247Z,1.41
2023-01-22T22:43:40.488Z,1.41
2023-01-22T22:46:10.297Z,1.40
2023-01-22T22:48:36.705Z,1.39
2023-01-22T22:51:14.146Z,1.38
2023-01-22T22:53:40.806Z,1.38
2023-01-22T22:56:07.651Z,1.39
2023-01-22T22:58:34.326Z,1.37
2023-01-22T23:01:07.645Z,1.41
2023-01-22T23:03:35.031Z,1.46
2023-01-22T23:06:13.103Z,1.44
2023-01-22T23:08:40.338Z,1.47
2023-01-22T23:11:08.509Z,1.50
2023-01-22T23:13:35.041Z,1.50
2023-01-22T23:16:05.892Z,1.50
2023-01-22T23:18:32.981Z,1.47
2023-01-22T23:21:09.675Z,1.49
2023-01-22T23:23:36.216Z,1.52
2023-01-22T23:26:03.115Z,1.49
2023-01-22T23:28:29.672Z,1.46
2023-01-22T23:30:56.119Z,1.45
2023-01-22T23:33:22.707Z,1.45
2023-01-22T23:35:51.230Z,1.44
2023-01-22T23:38:17.577Z,1.48
2023-01-22T23:40:43.931Z,1.45
2023-01-22T23:43:10.515Z,1.49
2023-01-22T23:45:40.423Z,1.46
2023-01-22T23:48:06.782Z,1.46
2023-01-22T23:50:33.139Z,1.49
2023-01-22T23:52:59.479Z,1.47
2023-01-22T23:55:25.827Z,1.50
2023-01-22T23:57:53.613Z,1.45
